sensor_id;sensor_type;location;lat;lon;timestamp;temperature;humidity
12043;DHT22;6082;49.306;12.862;2024-02-21T00:02:08;6.10;99.90
12043;DHT22;6082;49.306;12.862;2024-02-21T00:04:34;6.10;99.90
12043;DHT22;6082;49.306;12.862;2024-02-21T00:07:00;6.10;99.90
12043;DHT22;6082;49.306;12.862;2024-02-21T00:09:26;6.10;99.90
12043;DHT22;6082;49.306;12.862;2024-02-21T00:11:51;6.20;99.90
12043;DHT22;6082;49.306;12.862;2024-02-21T00:14:17;6.10;99.90
12043;DHT22;6082;49.306;12.862;2024-02-21T00:16:43;6.20;99.90
12043;DHT22;6082;49.306;12.862;2024-02-21T00:19:09;6.10;99.90
12043;DHT22;6082;49.306;12.862;2024-02-21T00:21:34;6.10;99.90
12043;DHT22;6082;49.306;12.862;2024-02-21T00:24:00;6.10;99.90
12043;DHT22;6082;49.306;12.862;2024-02-21T00:26:26;6.10;99.90
12043;DHT22;6082;49.306;12.862;2024-02-21T00:28:51;6.10;99.90
12043;DHT22;6082;49.306;12.862;2024-02-21T00:31:17;6.10;99.90
12043;DHT22;6082;49.306;12.862;2024-02-21T00:33:43;6.10;99.90
12043;DHT22;6082;49.306;12.862;2024-02-21T00:36:08;6.10;99.90
12043;DHT22;6082;49.306;12.862;2024-02-21T00:38:34;6.10;99.90
12043;DHT22;6082;49.306;12.862;2024-02-21T00:41:00;6.10;99.90
12043;DHT22;6082;49.306;12.862;2024-02-21T00:43:25;6.10;99.90
12043;DHT22;6082;49.306;12.862;2024-02-21T00:45:51;6.10;99.90
12043;DHT22;6082;49.306;12.862;2024-02-21T00:48:17;6.10;99.90
12043;DHT22;6082;49.306;12.862;2024-02-21T00:50:42;6.10;99.90
12043;DHT22;6082;49.306;12.862;2024-02-21T00:53:08;6.10;99.90
12043;DHT22;6082;49.306;12.862;2024-02-21T00:55:35;6.10;99.90
12043;DHT22;6082;49.306;12.862;2024-02-21T00:58:01;6.10;99.90
12043;DHT22;6082;49.306;12.862;2024-02-21T01:00:27;6.10;99.90
12043;DHT22;6082;49.306;12.862;2024-02-21T01:02:52;6.10;99.90
12043;DHT22;6082;49.306;12.862;2024-02-21T01:05:18;6.10;99.90
12043;DHT22;6082;49.306;12.862;2024-02-21T01:07:45;6.10;99.90
12043;DHT22;6082;49.306;12.862;2024-02-21T01:10:11;6.10;99.90
12043;DHT22;6082;49.306;12.862;2024-02-21T01:12:37;6.00;99.90
12043;DHT22;6082;49.306;12.862;2024-02-21T01:15:03;6.00;99.90
12043;DHT22;6082;49.306;12.862;2024-02-21T01:17:29;6.10;99.90
12043;DHT22;6082;49.306;12.862;2024-02-21T01:19:54;6.10;99.90
12043;DHT22;6082;49.306;12.862;2024-02-21T01:22:20;6.10;99.90
12043;DHT22;6082;49.306;12.862;2024-02-21T01:24:46;6.00;99.90
12043;DHT22;6082;49.306;12.862;2024-02-21T01:27:11;6.00;99.90
12043;DHT22;6082;49.306;12.862;2024-02-21T01:29:37;6.00;99.90
12043;DHT22;6082;49.306;12.862;2024-02-21T01:32:03;6.00;99.90
12043;DHT22;6082;49.306;12.862;2024-02-21T01:34:29;6.00;99.90
12043;DHT22;6082;49.306;12.862;2024-02-21T01:36:54;6.00;99.90
12043;DHT22;6082;49.306;12.862;2024-02-21T01:39:20;6.00;99.90
12043;DHT22;6082;49.306;12.862;2024-02-21T01:41:46;6.00;99.90
12043;DHT22;6082;49.306;12.862;2024-02-21T01:44:11;6.00;99.90
12043;DHT22;6082;49.306;12.862;2024-02-21T01:46:37;6.00;99.90
12043;DHT22;6082;49.306;12.862;2024-02-21T01:49:03;6.00;99.90
12043;DHT22;6082;49.306;12.862;2024-02-21T01:51:30;6.00;99.90
12043;DHT22;6082;49.306;12.862;2024-02-21T01:53:57;6.00;99.90
12043;DHT22;6082;49.306;12.862;2024-02-21T01:56:24;6.00;99.90
12043;DHT22;6082;49.306;12.862;2024-02-21T01:58:50;5.90;99.90
12043;DHT22;6082;49.306;12.862;2024-02-21T02:01:17;5.90;99.90
12043;DHT22;6082;49.306;12.862;2024-02-21T02:03:45;5.90;99.90
12043;DHT22;6082;49.306;12.862;2024-02-21T02:06:10;5.90;99.90
12043;DHT22;6082;49.306;12.862;2024-02-21T02:08:36;5.90;99.90
12043;DHT22;6082;49.306;12.862;2024-02-21T02:11:03;5.90;99.90
12043;DHT22;6082;49.306;12.862;2024-02-21T02:13:28;5.90;99.90
12043;DHT22;6082;49.306;12.862;2024-02-21T02:15:54;5.90;99.90
12043;DHT22;6082;49.306;12.862;2024-02-21T02:18:20;5.90;99.90
12043;DHT22;6082;49.306;12.862;2024-02-21T02:20:47;5.90;99.90
12043;DHT22;6082;49.306;12.862;2024-02-21T02:23:25;5.90;99.90
12043;DHT22;6082;49.306;12.862;2024-02-21T02:25:51;5.90;99.90
12043;DHT22;6082;49.306;12.862;2024-02-21T02:28:20;5.90;99.90
12043;DHT22;6082;49.306;12.862;2024-02-21T02:30:47;5.90;99.90
12043;DHT22;6082;49.306;12.862;2024-02-21T02:33:13;5.90;99.90
12043;DHT22;6082;49.306;12.862;2024-02-21T02:35:39;5.90;99.90
12043;DHT22;6082;49.306;12.862;2024-02-21T02:38:05;5.80;99.90
12043;DHT22;6082;49.306;12.862;2024-02-21T02:40:33;5.80;99.90
12043;DHT22;6082;49.306;12.862;2024-02-21T02:42:59;5.80;99.90
12043;DHT22;6082;49.306;12.862;2024-02-21T02:45:25;5.80;99.90
12043;DHT22;6082;49.306;12.862;2024-02-21T02:47:52;5.80;99.90
12043;DHT22;6082;49.306;12.862;2024-02-21T02:50:20;5.80;99.90
12043;DHT22;6082;49.306;12.862;2024-02-21T02:52:45;5.80;99.90
12043;DHT22;6082;49.306;12.862;2024-02-21T02:55:11;5.80;99.90
12043;DHT22;6082;49.306;12.862;2024-02-21T02:57:37;5.70;99.90
12043;DHT22;6082;49.306;12.862;2024-02-21T03:00:04;5.70;99.90
12043;DHT22;6082;49.306;12.862;2024-02-21T03:02:30;5.70;99.90
12043;DHT22;6082;49.306;12.862;2024-02-21T03:04:57;5.70;99.90
12043;DHT22;6082;49.306;12.862;2024-02-21T03:07:25;5.70;99.90
12043;DHT22;6082;49.306;12.862;2024-02-21T03:09:51;5.70;99.90
12043;DHT22;6082;49.306;12.862;2024-02-21T03:12:18;5.70;99.90
12043;DHT22;6082;49.306;12.862;2024-02-21T03:14:50;5.70;99.90
12043;DHT22;6082;49.306;12.862;2024-02-21T03:17:16;5.70;99.90
12043;DHT22;6082;49.306;12.862;2024-02-21T03:19:42;5.70;99.90
12043;DHT22;6082;49.306;12.862;2024-02-21T03:22:08;5.70;99.90
12043;DHT22;6082;49.306;12.862;2024-02-21T03:24:33;5.70;99.90
12043;DHT22;6082;49.306;12.862;2024-02-21T03:26:59;5.70;99.90
12043;DHT22;6082;49.306;12.862;2024-02-21T03:29:25;5.70;99.90
12043;DHT22;6082;49.306;12.862;2024-02-21T03:31:51;5.60;99.90
12043;DHT22;6082;49.306;12.862;2024-02-21T03:34:16;5.60;99.90
12043;DHT22;6082;49.306;12.862;2024-02-21T03:36:42;5.60;99.90
12043;DHT22;6082;49.306;12.862;2024-02-21T03:39:08;5.60;99.90
12043;DHT22;6082;49.306;12.862;2024-02-21T03:41:34;5.60;99.90
12043;DHT22;6082;49.306;12.862;2024-02-21T03:44:00;5.60;99.90
12043;DHT22;6082;49.306;12.862;2024-02-21T03:46:27;5.70;99.90
12043;DHT22;6082;49.306;12.862;2024-02-21T03:48:53;5.60;99.90
12043;DHT22;6082;49.306;12.862;2024-02-21T03:51:18;5.60;99.90
12043;DHT22;6082;49.306;12.862;2024-02-21T03:53:44;5.60;99.90
12043;DHT22;6082;49.306;12.862;2024-02-21T03:56:10;5.60;99.90
12043;DHT22;6082;49.306;12.862;2024-02-21T03:58:36;5.70;99.90
12043;DHT22;6082;49.306;12.862;2024-02-21T04:01:02;5.60;99.90
12043;DHT22;6082;49.306;12.862;2024-02-21T04:03:28;5.60;99.90
12043;DHT22;6082;49.306;12.862;2024-02-21T04:05:54;5.60;99.90
12043;DHT22;6082;49.306;12.862;2024-02-21T04:08:20;5.70;99.90
12043;DHT22;6082;49.306;12.862;2024-02-21T04:10:46;5.70;99.90
12043;DHT22;6082;49.306;12.862;2024-02-21T04:13:12;5.70;99.90
12043;DHT22;6082;49.306;12.862;2024-02-21T04:15:38;5.70;99.90
12043;DHT22;6082;49.306;12.862;2024-02-21T04:18:04;5.70;99.90
12043;DHT22;6082;49.306;12.862;2024-02-21T04:20:29;5.70;99.90
12043;DHT22;6082;49.306;12.862;2024-02-21T04:22:56;5.70;99.90
12043;DHT22;6082;49.306;12.862;2024-02-21T04:25:21;5.70;99.90
12043;DHT22;6082;49.306;12.862;2024-02-21T04:27:47;5.70;99.90
12043;DHT22;6082;49.306;12.862;2024-02-21T04:30:13;5.70;99.90
12043;DHT22;6082;49.306;12.862;2024-02-21T04:32:39;5.70;99.90
12043;DHT22;6082;49.306;12.862;2024-02-21T04:35:06;5.70;99.90
12043;DHT22;6082;49.306;12.862;2024-02-21T04:37:32;5.70;99.90
12043;DHT22;6082;49.306;12.862;2024-02-21T04:39:58;5.70;99.90
12043;DHT22;6082;49.306;12.862;2024-02-21T04:42:24;5.70;99.90
12043;DHT22;6082;49.306;12.862;2024-02-21T04:44:50;5.70;99.90
12043;DHT22;6082;49.306;12.862;2024-02-21T04:47:16;5.70;99.90
12043;DHT22;6082;49.306;12.862;2024-02-21T04:49:41;5.70;99.90
12043;DHT22;6082;49.306;12.862;2024-02-21T04:52:07;5.70;99.90
12043;DHT22;6082;49.306;12.862;2024-02-21T04:57:00;5.70;99.90
12043;DHT22;6082;49.306;12.862;2024-02-21T04:59:26;5.70;99.90
12043;DHT22;6082;49.306;12.862;2024-02-21T05:01:52;5.70;99.90
12043;DHT22;6082;49.306;12.862;2024-02-21T05:04:18;5.70;99.90
12043;DHT22;6082;49.306;12.862;2024-02-21T05:06:43;5.70;99.90
12043;DHT22;6082;49.306;12.862;2024-02-21T05:09:09;5.70;99.90
12043;DHT22;6082;49.306;12.862;2024-02-21T05:11:36;5.70;99.90
12043;DHT22;6082;49.306;12.862;2024-02-21T05:14:03;5.70;99.90
12043;DHT22;6082;49.306;12.862;2024-02-21T05:16:29;5.70;99.90
12043;DHT22;6082;49.306;12.862;2024-02-21T05:18:55;5.70;99.90
12043;DHT22;6082;49.306;12.862;2024-02-21T05:21:23;5.70;99.90
12043;DHT22;6082;49.306;12.862;2024-02-21T05:23:53;5.80;99.90
12043;DHT22;6082;49.306;12.862;2024-02-21T05:26:25;5.80;99.90
12043;DHT22;6082;49.306;12.862;2024-02-21T05:28:51;5.80;99.90
12043;DHT22;6082;49.306;12.862;2024-02-21T05:31:20;5.80;99.90
12043;DHT22;6082;49.306;12.862;2024-02-21T05:33:47;5.80;99.90
12043;DHT22;6082;49.306;12.862;2024-02-21T05:36:13;5.80;99.90
12043;DHT22;6082;49.306;12.862;2024-02-21T05:38:39;5.80;99.90
12043;DHT22;6082;49.306;12.862;2024-02-21T05:41:05;5.80;99.90
12043;DHT22;6082;49.306;12.862;2024-02-21T05:43:31;5.80;99.90
12043;DHT22;6082;49.306;12.862;2024-02-21T05:45:57;5.90;99.90
12043;DHT22;6082;49.306;12.862;2024-02-21T05:48:23;5.90;99.90
12043;DHT22;6082;49.306;12.862;2024-02-21T05:50:49;5.90;99.90
12043;DHT22;6082;49.306;12.862;2024-02-21T05:53:15;5.90;99.90
12043;DHT22;6082;49.306;12.862;2024-02-21T05:55:41;5.90;99.90
12043;DHT22;6082;49.306;12.862;2024-02-21T05:58:07;5.90;99.90
12043;DHT22;6082;49.306;12.862;2024-02-21T06:00:33;5.90;99.90
12043;DHT22;6082;49.306;12.862;2024-02-21T06:02:59;5.90;99.90
12043;DHT22;6082;49.306;12.862;2024-02-21T06:05:25;5.90;99.90
12043;DHT22;6082;49.306;12.862;2024-02-21T06:07:50;5.80;99.90
12043;DHT22;6082;49.306;12.862;2024-02-21T06:10:16;5.80;99.90
12043;DHT22;6082;49.306;12.862;2024-02-21T06:12:42;5.80;99.90
12043;DHT22;6082;49.306;12.862;2024-02-21T06:15:08;5.90;99.90
12043;DHT22;6082;49.306;12.862;2024-02-21T06:17:34;5.90;99.90
12043;DHT22;6082;49.306;12.862;2024-02-21T06:20:00;5.80;99.90
12043;DHT22;6082;49.306;12.862;2024-02-21T06:22:25;5.80;99.90
12043;DHT22;6082;49.306;12.862;2024-02-21T06:24:51;5.80;99.90
12043;DHT22;6082;49.306;12.862;2024-02-21T06:27:18;5.80;99.90
12043;DHT22;6082;49.306;12.862;2024-02-21T06:29:44;5.80;99.90
12043;DHT22;6082;49.306;12.862;2024-02-21T06:32:10;5.70;99.90
12043;DHT22;6082;49.306;12.862;2024-02-21T06:34:36;5.70;99.90
12043;DHT22;6082;49.306;12.862;2024-02-21T06:37:01;5.80;99.90
12043;DHT22;6082;49.306;12.862;2024-02-21T06:39:27;5.70;99.90
12043;DHT22;6082;49.306;12.862;2024-02-21T06:41:54;5.80;99.90
12043;DHT22;6082;49.306;12.862;2024-02-21T06:44:21;5.70;99.90
12043;DHT22;6082;49.306;12.862;2024-02-21T06:46:47;5.70;99.90
12043;DHT22;6082;49.306;12.862;2024-02-21T06:49:13;5.80;99.90
12043;DHT22;6082;49.306;12.862;2024-02-21T06:51:42;5.80;99.90
12043;DHT22;6082;49.306;12.862;2024-02-21T06:54:08;5.80;99.90
12043;DHT22;6082;49.306;12.862;2024-02-21T06:56:36;5.80;99.90
12043;DHT22;6082;49.306;12.862;2024-02-21T06:59:03;5.80;99.90
12043;DHT22;6082;49.306;12.862;2024-02-21T07:01:29;5.80;99.90
12043;DHT22;6082;49.306;12.862;2024-02-21T07:03:55;5.70;99.90
12043;DHT22;6082;49.306;12.862;2024-02-21T07:06:22;5.80;99.90
12043;DHT22;6082;49.306;12.862;2024-02-21T07:08:47;5.70;99.90
12043;DHT22;6082;49.306;12.862;2024-02-21T07:11:13;5.70;99.90
12043;DHT22;6082;49.306;12.862;2024-02-21T07:13:39;5.70;99.90
12043;DHT22;6082;49.306;12.862;2024-02-21T07:16:06;5.80;99.90
12043;DHT22;6082;49.306;12.862;2024-02-21T07:18:32;5.80;99.90
12043;DHT22;6082;49.306;12.862;2024-02-21T07:20:57;5.80;99.90
12043;DHT22;6082;49.306;12.862;2024-02-21T07:23:24;5.80;99.90
12043;DHT22;6082;49.306;12.862;2024-02-21T07:25:49;5.80;99.90
12043;DHT22;6082;49.306;12.862;2024-02-21T07:28:15;5.80;99.90
12043;DHT22;6082;49.306;12.862;2024-02-21T07:30:42;5.80;99.90
12043;DHT22;6082;49.306;12.862;2024-02-21T07:33:08;5.80;99.90
12043;DHT22;6082;49.306;12.862;2024-02-21T07:35:33;5.80;99.90
12043;DHT22;6082;49.306;12.862;2024-02-21T07:37:59;5.80;99.90
12043;DHT22;6082;49.306;12.862;2024-02-21T07:40:25;5.80;99.90
12043;DHT22;6082;49.306;12.862;2024-02-21T07:42:51;5.90;99.90
12043;DHT22;6082;49.306;12.862;2024-02-21T07:45:17;6.00;99.90
12043;DHT22;6082;49.306;12.862;2024-02-21T07:47:43;6.00;99.90
12043;DHT22;6082;49.306;12.862;2024-02-21T07:50:09;6.00;99.90
12043;DHT22;6082;49.306;12.862;2024-02-21T07:52:35;6.00;99.90
12043;DHT22;6082;49.306;12.862;2024-02-21T07:55:01;6.10;99.90
12043;DHT22;6082;49.306;12.862;2024-02-21T07:57:27;6.10;99.90
12043;DHT22;6082;49.306;12.862;2024-02-21T07:59:52;6.20;99.90
12043;DHT22;6082;49.306;12.862;2024-02-21T08:02:18;6.20;99.90
12043;DHT22;6082;49.306;12.862;2024-02-21T08:04:44;6.30;99.90
12043;DHT22;6082;49.306;12.862;2024-02-21T08:07:09;6.30;99.90
12043;DHT22;6082;49.306;12.862;2024-02-21T08:09:35;6.30;99.90
12043;DHT22;6082;49.306;12.862;2024-02-21T08:12:04;6.30;99.90
12043;DHT22;6082;49.306;12.862;2024-02-21T08:14:29;6.30;99.90
12043;DHT22;6082;49.306;12.862;2024-02-21T08:16:55;6.40;99.90
12043;DHT22;6082;49.306;12.862;2024-02-21T08:19:21;6.50;99.90
12043;DHT22;6082;49.306;12.862;2024-02-21T08:21:50;6.60;99.90
12043;DHT22;6082;49.306;12.862;2024-02-21T08:24:15;6.70;99.90
12043;DHT22;6082;49.306;12.862;2024-02-21T08:26:42;6.80;99.90
12043;DHT22;6082;49.306;12.862;2024-02-21T08:29:08;6.80;99.90
12043;DHT22;6082;49.306;12.862;2024-02-21T08:31:33;6.80;99.90
12043;DHT22;6082;49.306;12.862;2024-02-21T08:34:00;6.80;99.90
12043;DHT22;6082;49.306;12.862;2024-02-21T08:36:35;6.90;99.90
12043;DHT22;6082;49.306;12.862;2024-02-21T08:39:03;6.90;99.90
12043;DHT22;6082;49.306;12.862;2024-02-21T08:41:32;6.90;99.90
12043;DHT22;6082;49.306;12.862;2024-02-21T08:43:58;6.90;99.90
12043;DHT22;6082;49.306;12.862;2024-02-21T08:46:24;6.90;99.90
12043;DHT22;6082;49.306;12.862;2024-02-21T08:48:50;6.90;99.90
12043;DHT22;6082;49.306;12.862;2024-02-21T08:51:19;7.00;99.90
12043;DHT22;6082;49.306;12.862;2024-02-21T08:53:45;7.00;99.90
12043;DHT22;6082;49.306;12.862;2024-02-21T08:56:11;7.10;99.90
12043;DHT22;6082;49.306;12.862;2024-02-21T08:58:38;7.10;99.90
12043;DHT22;6082;49.306;12.862;2024-02-21T09:01:05;7.10;99.90
12043;DHT22;6082;49.306;12.862;2024-02-21T09:03:33;7.10;99.90
12043;DHT22;6082;49.306;12.862;2024-02-21T09:05:59;7.10;99.90
12043;DHT22;6082;49.306;12.862;2024-02-21T09:08:25;7.10;99.90
12043;DHT22;6082;49.306;12.862;2024-02-21T09:10:52;7.10;99.90
12043;DHT22;6082;49.306;12.862;2024-02-21T09:13:18;7.00;99.90
12043;DHT22;6082;49.306;12.862;2024-02-21T09:15:43;7.10;99.90
12043;DHT22;6082;49.306;12.862;2024-02-21T09:18:09;7.20;99.90
12043;DHT22;6082;49.306;12.862;2024-02-21T09:20:35;7.30;99.90
12043;DHT22;6082;49.306;12.862;2024-02-21T09:23:01;7.30;99.90
12043;DHT22;6082;49.306;12.862;2024-02-21T09:25:26;7.30;99.90
12043;DHT22;6082;49.306;12.862;2024-02-21T09:27:54;7.30;99.90
12043;DHT22;6082;49.306;12.862;2024-02-21T09:30:20;7.30;99.90
12043;DHT22;6082;49.306;12.862;2024-02-21T09:32:47;7.40;99.90
12043;DHT22;6082;49.306;12.862;2024-02-21T09:35:13;7.50;99.90
12043;DHT22;6082;49.306;12.862;2024-02-21T09:37:39;7.60;99.90
12043;DHT22;6082;49.306;12.862;2024-02-21T09:40:05;7.70;99.90
12043;DHT22;6082;49.306;12.862;2024-02-21T09:42:38;7.80;99.90
12043;DHT22;6082;49.306;12.862;2024-02-21T09:45:24;7.90;99.90
12043;DHT22;6082;49.306;12.862;2024-02-21T09:48:25;7.90;99.90
12043;DHT22;6082;49.306;12.862;2024-02-21T09:50:57;8.10;99.90
12043;DHT22;6082;49.306;12.862;2024-02-21T09:53:24;8.00;99.90
12043;DHT22;6082;49.306;12.862;2024-02-21T09:55:50;8.00;99.90
12043;DHT22;6082;49.306;12.862;2024-02-21T09:58:17;7.90;99.90
12043;DHT22;6082;49.306;12.862;2024-02-21T10:00:43;7.90;99.90
12043;DHT22;6082;49.306;12.862;2024-02-21T10:03:09;7.90;99.90
12043;DHT22;6082;49.306;12.862;2024-02-21T10:05:36;7.80;99.90
12043;DHT22;6082;49.306;12.862;2024-02-21T10:08:03;7.90;99.90
12043;DHT22;6082;49.306;12.862;2024-02-21T10:10:28;8.00;99.90
12043;DHT22;6082;49.306;12.862;2024-02-21T10:12:55;8.10;99.90
12043;DHT22;6082;49.306;12.862;2024-02-21T10:15:22;8.20;99.90
12043;DHT22;6082;49.306;12.862;2024-02-21T10:17:59;8.30;99.90
12043;DHT22;6082;49.306;12.862;2024-02-21T10:20:24;8.40;99.90
12043;DHT22;6082;49.306;12.862;2024-02-21T10:23:03;8.50;99.90
12043;DHT22;6082;49.306;12.862;2024-02-21T10:25:34;8.70;99.90
12043;DHT22;6082;49.306;12.862;2024-02-21T10:28:01;8.70;99.90
12043;DHT22;6082;49.306;12.862;2024-02-21T10:30:27;8.70;99.90
12043;DHT22;6082;49.306;12.862;2024-02-21T10:32:53;8.80;99.90
12043;DHT22;6082;49.306;12.862;2024-02-21T10:35:27;8.80;99.90
12043;DHT22;6082;49.306;12.862;2024-02-21T10:37:54;8.90;99.90
12043;DHT22;6082;49.306;12.862;2024-02-21T10:40:23;9.00;99.90
12043;DHT22;6082;49.306;12.862;2024-02-21T10:43:12;9.00;99.90
12043;DHT22;6082;49.306;12.862;2024-02-21T10:45:39;9.10;99.90
12043;DHT22;6082;49.306;12.862;2024-02-21T10:48:12;9.20;99.90
12043;DHT22;6082;49.306;12.862;2024-02-21T10:53:45;9.20;99.90
12043;DHT22;6082;49.306;12.862;2024-02-21T10:56:22;9.30;99.90
12043;DHT22;6082;49.306;12.862;2024-02-21T10:58:51;9.30;99.90
12043;DHT22;6082;49.306;12.862;2024-02-21T11:01:18;9.30;99.90
12043;DHT22;6082;49.306;12.862;2024-02-21T11:03:46;9.40;99.90
12043;DHT22;6082;49.306;12.862;2024-02-21T11:06:12;9.50;99.90
12043;DHT22;6082;49.306;12.862;2024-02-21T11:08:39;9.60;99.90
12043;DHT22;6082;49.306;12.862;2024-02-21T11:11:05;9.70;99.90
12043;DHT22;6082;49.306;12.862;2024-02-21T11:13:41;9.80;99.90
12043;DHT22;6082;49.306;12.862;2024-02-21T11:16:09;9.90;99.90
12043;DHT22;6082;49.306;12.862;2024-02-21T11:18:36;9.90;99.90
12043;DHT22;6082;49.306;12.862;2024-02-21T11:21:02;10.00;99.90
12043;DHT22;6082;49.306;12.862;2024-02-21T11:23:28;10.00;99.90
12043;DHT22;6082;49.306;12.862;2024-02-21T11:26:10;10.00;99.90
12043;DHT22;6082;49.306;12.862;2024-02-21T11:28:44;10.00;99.90
12043;DHT22;6082;49.306;12.862;2024-02-21T11:31:14;10.10;99.90
12043;DHT22;6082;49.306;12.862;2024-02-21T11:33:43;10.30;99.90
12043;DHT22;6082;49.306;12.862;2024-02-21T11:36:09;10.30;99.90
12043;DHT22;6082;49.306;12.862;2024-02-21T11:38:35;10.30;99.90
12043;DHT22;6082;49.306;12.862;2024-02-21T11:41:01;10.30;99.90
12043;DHT22;6082;49.306;12.862;2024-02-21T11:43:27;10.30;99.90
12043;DHT22;6082;49.306;12.862;2024-02-21T11:46:02;10.20;99.90
12043;DHT22;6082;49.306;12.862;2024-02-21T11:48:29;10.20;99.90
12043;DHT22;6082;49.306;12.862;2024-02-21T11:50:56;10.20;99.90
12043;DHT22;6082;49.306;12.862;2024-02-21T11:53:22;10.30;99.90
12043;DHT22;6082;49.306;12.862;2024-02-21T11:55:49;10.40;99.90
12043;DHT22;6082;49.306;12.862;2024-02-21T11:58:15;10.40;99.90
12043;DHT22;6082;49.306;12.862;2024-02-21T12:00:41;10.50;99.90
12043;DHT22;6082;49.306;12.862;2024-02-21T12:03:07;10.60;99.90
12043;DHT22;6082;49.306;12.862;2024-02-21T12:05:33;10.60;99.90
12043;DHT22;6082;49.306;12.862;2024-02-21T12:08:00;10.70;99.90
12043;DHT22;6082;49.306;12.862;2024-02-21T12:10:26;10.70;99.90
12043;DHT22;6082;49.306;12.862;2024-02-21T12:13:06;10.70;99.90
12043;DHT22;6082;49.306;12.862;2024-02-21T12:15:32;10.70;99.90
12043;DHT22;6082;49.306;12.862;2024-02-21T12:17:58;10.80;99.90
12043;DHT22;6082;49.306;12.862;2024-02-21T12:20:25;10.80;99.90
12043;DHT22;6082;49.306;12.862;2024-02-21T12:22:51;10.80;99.90
12043;DHT22;6082;49.306;12.862;2024-02-21T12:25:22;10.80;99.90
12043;DHT22;6082;49.306;12.862;2024-02-21T12:27:48;10.90;99.90
12043;DHT22;6082;49.306;12.862;2024-02-21T12:30:15;10.90;99.90
12043;DHT22;6082;49.306;12.862;2024-02-21T12:32:41;10.90;99.90
12043;DHT22;6082;49.306;12.862;2024-02-21T12:35:07;10.90;99.90
12043;DHT22;6082;49.306;12.862;2024-02-21T12:37:34;10.90;99.90
12043;DHT22;6082;49.306;12.862;2024-02-21T12:40:00;11.00;99.90
12043;DHT22;6082;49.306;12.862;2024-02-21T12:42:26;11.00;99.90
12043;DHT22;6082;49.306;12.862;2024-02-21T12:44:52;11.10;99.90
12043;DHT22;6082;49.306;12.862;2024-02-21T12:47:18;11.10;99.90
12043;DHT22;6082;49.306;12.862;2024-02-21T12:49:45;11.10;99.90
12043;DHT22;6082;49.306;12.862;2024-02-21T12:52:11;11.10;99.90
12043;DHT22;6082;49.306;12.862;2024-02-21T12:54:38;11.00;99.90
12043;DHT22;6082;49.306;12.862;2024-02-21T12:57:04;11.10;99.90
12043;DHT22;6082;49.306;12.862;2024-02-21T12:59:30;11.00;99.90
12043;DHT22;6082;49.306;12.862;2024-02-21T13:01:56;11.10;99.90
12043;DHT22;6082;49.306;12.862;2024-02-21T13:04:21;11.10;99.90
12043;DHT22;6082;49.306;12.862;2024-02-21T13:06:51;11.20;99.90
12043;DHT22;6082;49.306;12.862;2024-02-21T13:09:17;11.20;99.90
12043;DHT22;6082;49.306;12.862;2024-02-21T13:11:44;11.20;99.90
12043;DHT22;6082;49.306;12.862;2024-02-21T13:14:12;11.10;99.90
12043;DHT22;6082;49.306;12.862;2024-02-21T13:16:38;11.20;99.90
12043;DHT22;6082;49.306;12.862;2024-02-21T13:19:07;11.20;99.90
12043;DHT22;6082;49.306;12.862;2024-02-21T13:21:35;11.30;99.90
12043;DHT22;6082;49.306;12.862;2024-02-21T13:24:01;11.20;99.90
12043;DHT22;6082;49.306;12.862;2024-02-21T13:26:27;11.20;99.90
12043;DHT22;6082;49.306;12.862;2024-02-21T13:28:53;11.20;99.90
12043;DHT22;6082;49.306;12.862;2024-02-21T13:31:20;11.20;99.90
12043;DHT22;6082;49.306;12.862;2024-02-21T13:33:46;11.20;99.90
12043;DHT22;6082;49.306;12.862;2024-02-21T13:36:12;11.10;99.90
12043;DHT22;6082;49.306;12.862;2024-02-21T13:38:38;11.10;99.90
12043;DHT22;6082;49.306;12.862;2024-02-21T13:41:05;11.00;99.90
12043;DHT22;6082;49.306;12.862;2024-02-21T13:43:32;10.90;99.90
12043;DHT22;6082;49.306;12.862;2024-02-21T13:46:02;10.90;99.90
12043;DHT22;6082;49.306;12.862;2024-02-21T13:48:30;10.90;99.90
12043;DHT22;6082;49.306;12.862;2024-02-21T13:50:56;10.90;99.90
12043;DHT22;6082;49.306;12.862;2024-02-21T13:53:22;10.80;99.90
12043;DHT22;6082;49.306;12.862;2024-02-21T13:55:49;10.80;99.90
12043;DHT22;6082;49.306;12.862;2024-02-21T13:58:15;10.80;99.90
12043;DHT22;6082;49.306;12.862;2024-02-21T14:00:41;10.80;99.90
12043;DHT22;6082;49.306;12.862;2024-02-21T14:03:07;10.80;99.90
12043;DHT22;6082;49.306;12.862;2024-02-21T14:05:32;10.80;99.90
12043;DHT22;6082;49.306;12.862;2024-02-21T14:07:58;10.80;99.90
12043;DHT22;6082;49.306;12.862;2024-02-21T14:10:24;10.70;99.90
12043;DHT22;6082;49.306;12.862;2024-02-21T14:12:50;10.70;99.90
12043;DHT22;6082;49.306;12.862;2024-02-21T14:15:15;10.80;99.90
12043;DHT22;6082;49.306;12.862;2024-02-21T14:17:44;10.70;99.90
12043;DHT22;6082;49.306;12.862;2024-02-21T14:20:10;10.70;99.90
12043;DHT22;6082;49.306;12.862;2024-02-21T14:22:35;10.80;99.90
12043;DHT22;6082;49.306;12.862;2024-02-21T14:25:03;10.80;99.90
12043;DHT22;6082;49.306;12.862;2024-02-21T14:27:32;10.80;99.90
12043;DHT22;6082;49.306;12.862;2024-02-21T14:29:58;10.80;99.90
12043;DHT22;6082;49.306;12.862;2024-02-21T14:32:24;10.80;99.90
12043;DHT22;6082;49.306;12.862;2024-02-21T14:34:49;10.90;99.90
12043;DHT22;6082;49.306;12.862;2024-02-21T14:37:16;10.90;99.90
12043;DHT22;6082;49.306;12.862;2024-02-21T14:39:41;10.90;99.90
12043;DHT22;6082;49.306;12.862;2024-02-21T14:42:07;10.90;99.90
12043;DHT22;6082;49.306;12.862;2024-02-21T14:44:35;10.90;99.90
12043;DHT22;6082;49.306;12.862;2024-02-21T14:47:02;10.90;99.90
12043;DHT22;6082;49.306;12.862;2024-02-21T14:49:29;10.90;99.90
12043;DHT22;6082;49.306;12.862;2024-02-21T14:51:55;10.90;99.90
12043;DHT22;6082;49.306;12.862;2024-02-21T14:54:20;10.80;99.90
12043;DHT22;6082;49.306;12.862;2024-02-21T14:56:46;10.70;99.90
12043;DHT22;6082;49.306;12.862;2024-02-21T14:59:12;10.70;99.90
12043;DHT22;6082;49.306;12.862;2024-02-21T15:01:38;10.70;99.90
12043;DHT22;6082;49.306;12.862;2024-02-21T15:04:05;10.70;99.90
12043;DHT22;6082;49.306;12.862;2024-02-21T15:06:31;10.60;99.90
12043;DHT22;6082;49.306;12.862;2024-02-21T15:08:57;10.60;99.90
12043;DHT22;6082;49.306;12.862;2024-02-21T15:11:23;10.60;99.90
12043;DHT22;6082;49.306;12.862;2024-02-21T15:13:49;10.60;99.90
12043;DHT22;6082;49.306;12.862;2024-02-21T15:16:15;10.60;99.90
12043;DHT22;6082;49.306;12.862;2024-02-21T15:18:42;10.50;99.90
12043;DHT22;6082;49.306;12.862;2024-02-21T15:21:07;10.50;99.90
12043;DHT22;6082;49.306;12.862;2024-02-21T15:23:38;10.40;99.90
12043;DHT22;6082;49.306;12.862;2024-02-21T15:26:04;10.40;99.90
12043;DHT22;6082;49.306;12.862;2024-02-21T15:28:30;10.40;99.90
12043;DHT22;6082;49.306;12.862;2024-02-21T15:30:56;10.30;99.90
12043;DHT22;6082;49.306;12.862;2024-02-21T15:33:22;10.30;99.90
12043;DHT22;6082;49.306;12.862;2024-02-21T15:35:48;10.30;99.90
12043;DHT22;6082;49.306;12.862;2024-02-21T15:38:14;10.20;99.90
12043;DHT22;6082;49.306;12.862;2024-02-21T15:40:40;10.20;99.90
12043;DHT22;6082;49.306;12.862;2024-02-21T15:43:05;10.20;99.90
12043;DHT22;6082;49.306;12.862;2024-02-21T15:45:33;10.10;99.90